Time;durP1;ratioP1;P1;durP2;ratioP2;P2;SDS_P1;SDS_P2;PMS_P1;PMS_P2;Temp;Humidity;BMP_temperature;BMP_pressure;BME280_temperature;BME280_humidity;BME280_pressure;Samples;Min_cycle;Max_cycle;Signal;HPM_P1;HPM_P2
2023/01/25 00:00:54;;;;;;;19.13;13.57;;;;;;;0.43;100.00;102373.88;5004631;28;20506;-72
2023/01/25 00:03:21;;;;;;;20.23;14.67;;;;;;;-0.10;100.00;102365.84;5004053;28;20902;-72
2023/01/25 00:05:47;;;;;;;21.23;15.00;;;;;;;0.07;100.00;102366.50;5003586;28;20550;-72
2023/01/25 00:08:15;;;;;;;21.03;14.73;;;;;;;0.38;100.00;102368.66;5004353;28;20452;-72
2023/01/25 00:10:42;;;;;;;19.33;13.67;;;;;;;0.67;100.00;102369.97;5003815;28;20852;-73
2023/01/25 00:13:08;;;;;;;20.77;14.47;;;;;;;0.41;100.00;102370.41;5003853;28;20527;-72
2023/01/25 00:15:36;;;;;;;20.73;13.50;;;;;;;0.41;100.00;102365.13;5003516;28;20530;-72
2023/01/25 00:18:03;;;;;;;20.00;13.50;;;;;;;0.45;100.00;102366.81;5004769;28;20511;-72
2023/01/25 00:20:30;;;;;;;26.80;14.30;;;;;;;0.29;100.00;102353.88;5004115;28;20535;-72
2023/01/25 00:22:57;;;;;;;20.67;14.47;;;;;;;0.32;100.00;102356.47;5003579;28;20453;-72
2023/01/25 00:25:23;;;;;;;16.63;13.53;;;;;;;0.45;100.00;102346.66;5003537;28;20483;-72
2023/01/25 00:27:51;;;;;;;18.63;13.33;;;;;;;0.33;100.00;102341.53;5004367;28;20460;-72
2023/01/25 00:30:18;;;;;;;19.93;13.93;;;;;;;0.22;100.00;102333.81;5003513;28;20504;-72
2023/01/25 00:32:54;;;;;;;19.37;14.07;;;;;;;0.38;100.00;102331.81;5004302;28;20463;-76
2023/01/25 00:35:21;;;;;;;18.90;14.00;;;;;;;0.46;100.00;102332.59;4992488;28;20456;-76
2023/01/25 00:37:49;;;;;;;20.23;15.20;;;;;;;0.14;100.00;102326.06;5004147;28;20452;-76
2023/01/25 00:40:17;;;;;;;22.83;15.20;;;;;;;0.17;100.00;102323.38;5003219;28;20432;-76
2023/01/25 00:42:43;;;;;;;23.63;14.87;;;;;;;0.10;100.00;102319.09;5003882;28;20514;-77
2023/01/25 00:45:11;;;;;;;20.07;14.70;;;;;;;0.09;100.00;102327.88;4985602;28;20460;-78
2023/01/25 00:47:38;;;;;;;20.90;15.63;;;;;;;0.15;100.00;102316.41;4984922;28;20480;-77
2023/01/25 00:50:08;;;;;;;21.17;15.33;;;;;;;0.35;100.00;102319.59;4990492;28;20960;-76
2023/01/25 00:52:35;;;;;;;20.30;14.90;;;;;;;0.05;100.00;102320.91;4983319;28;20803;-76
2023/01/25 00:55:02;;;;;;;20.47;14.07;;;;;;;0.24;100.00;102328.53;4986150;28;20460;-76
2023/01/25 00:57:28;;;;;;;21.93;15.60;;;;;;;0.28;100.00;102317.97;5001800;28;20475;-76
2023/01/25 00:59:55;;;;;;;21.63;14.53;;;;;;;0.49;100.00;102326.41;5004058;28;20478;-76
2023/01/25 01:02:22;;;;;;;18.13;13.20;;;;;;;-0.04;100.00;102318.41;5001024;28;21008;-75
2023/01/25 01:04:48;;;;;;;19.93;13.80;;;;;;;0.16;100.00;102315.53;4984458;28;20468;-76
2023/01/25 01:07:16;;;;;;;18.57;14.03;;;;;;;0.12;100.00;102321.69;5003184;28;20988;-76
2023/01/25 01:09:43;;;;;;;17.70;13.00;;;;;;;0.02;100.00;102314.81;5003579;28;20477;-75
2023/01/25 01:12:10;;;;;;;19.00;13.20;;;;;;;0.14;100.00;102314.66;5003165;28;20546;-76
2023/01/25 01:14:36;;;;;;;19.73;14.87;;;;;;;0.36;100.00;102313.47;4987511;28;20488;-76
2023/01/25 01:17:03;;;;;;;21.27;15.03;;;;;;;0.30;100.00;102305.66;4984911;28;20484;-76
2023/01/25 01:19:30;;;;;;;19.53;14.83;;;;;;;0.25;100.00;102304.84;5003094;28;20455;-76
2023/01/25 01:21:57;;;;;;;23.20;15.57;;;;;;;0.08;100.00;102312.97;4990644;28;20564;-76
2023/01/25 01:24:25;;;;;;;18.70;14.27;;;;;;;0.36;100.00;102316.09;4984429;28;20504;-76
2023/01/25 01:26:52;;;;;;;23.00;14.57;;;;;;;0.61;100.00;102317.41;4993237;28;21076;-76
2023/01/25 01:29:18;;;;;;;23.43;15.23;;;;;;;0.40;100.00;102316.91;5003464;28;20444;-76
2023/01/25 01:31:45;;;;;;;20.40;13.37;;;;;;;0.47;100.00;102313.28;4994475;28;20489;-76
2023/01/25 01:34:13;;;;;;;20.97;14.27;;;;;;;0.59;100.00;102316.59;4983820;28;20535;-76
2023/01/25 01:36:40;;;;;;;21.83;15.20;;;;;;;0.71;100.00;102313.75;5000768;28;20559;-76
2023/01/25 01:39:06;;;;;;;18.90;13.90;;;;;;;0.44;100.00;102315.09;5003361;28;21098;-76
2023/01/25 01:41:35;;;;;;;20.53;15.27;;;;;;;0.21;100.00;102321.59;5002754;28;20889;-76
2023/01/25 01:44:01;;;;;;;19.97;14.33;;;;;;;0.22;100.00;102325.94;5002698;28;20460;-76
2023/01/25 01:46:32;;;;;;;20.20;14.03;;;;;;;0.27;100.00;102316.22;5001942;28;20502;-77
2023/01/25 01:49:01;;;;;;;18.50;13.40;;;;;;;0.25;100.00;102312.75;5002580;28;20450;-76
2023/01/25 01:51:44;;;;;;;19.43;13.23;;;;;;;0.43;100.00;102319.47;5001338;28;20519;-76
2023/01/25 01:54:14;;;;;;;19.93;14.23;;;;;;;0.17;100.00;102326.03;4999213;28;20467;-76
2023/01/25 01:56:47;;;;;;;18.17;13.10;;;;;;;-0.04;100.00;102321.06;4982654;28;20484;-76
2023/01/25 01:59:15;;;;;;;18.67;13.00;;;;;;;0.26;100.00;102314.50;4983080;28;20456;-76
2023/01/25 02:01:41;;;;;;;18.67;13.73;;;;;;;0.12;100.00;102312.06;4983212;28;20531;-76
2023/01/25 02:04:08;;;;;;;18.80;13.60;;;;;;;0.05;100.00;102312.16;4984957;28;20449;-76
2023/01/25 02:06:40;;;;;;;22.37;14.97;;;;;;;0.08;100.00;102304.25;4982487;28;20481;-76
2023/01/25 02:09:07;;;;;;;19.07;14.73;;;;;;;0.16;100.00;102307.63;4983422;28;20499;-77
2023/01/25 02:11:34;;;;;;;21.43;14.77;;;;;;;0.12;100.00;102311.19;4996691;28;21102;-76
2023/01/25 02:14:02;;;;;;;19.77;13.30;;;;;;;0.18;100.00;102311.09;5001947;28;20519;-76
2023/01/25 02:16:29;;;;;;;21.57;13.50;;;;;;;0.29;100.00;102310.94;5001704;28;20500;-76
2023/01/25 02:19:00;;;;;;;20.47;14.57;;;;;;;0.01;100.00;102305.22;4998537;28;20449;-77
2023/01/25 02:21:31;;;;;;;20.80;14.90;;;;;;;0.07;100.00;102300.75;5000211;28;20522;-77
2023/01/25 02:24:03;;;;;;;19.73;13.87;;;;;;;0.00;100.00;102301.72;5002636;28;20933;-77
2023/01/25 02:26:31;;;;;;;20.10;12.93;;;;;;;0.20;100.00;102293.53;4995480;28;20910;-77
2023/01/25 02:29:00;;;;;;;19.50;14.30;;;;;;;0.40;100.00;102300.22;4982596;28;20449;-76
2023/01/25 02:31:27;;;;;;;22.70;14.23;;;;;;;0.04;100.00;102305.19;4982740;28;20476;-76
2023/01/25 02:33:54;;;;;;;18.53;12.93;;;;;;;-0.23;100.00;102299.41;4983871;28;20449;-76
2023/01/25 02:36:23;;;;;;;17.87;12.53;;;;;;;-0.22;100.00;102304.66;5000255;28;20480;-76
2023/01/25 02:38:54;;;;;;;17.30;11.60;;;;;;;-0.03;100.00;102297.38;5002745;28;20453;-76
2023/01/25 02:41:24;;;;;;;16.27;11.57;;;;;;;0.31;100.00;102293.34;5001860;28;20475;-77
2023/01/25 02:43:53;;;;;;;18.73;12.20;;;;;;;0.41;100.00;102284.41;4983093;28;20460;-76
2023/01/25 02:46:24;;;;;;;18.67;13.10;;;;;;;0.14;100.00;102291.88;4984179;28;20476;-76
2023/01/25 02:48:51;;;;;;;17.90;12.10;;;;;;;-0.01;100.00;102282.44;4996767;28;20459;-76
2023/01/25 02:51:18;;;;;;;18.33;12.20;;;;;;;0.06;100.00;102280.59;5003730;28;20555;-76
2023/01/25 02:53:45;;;;;;;17.20;13.00;;;;;;;-0.03;100.00;102281.59;5006088;28;20479;-76
2023/01/25 02:56:12;;;;;;;17.53;11.77;;;;;;;0.16;100.00;102276.06;5001640;28;21020;-76
2023/01/25 02:58:39;;;;;;;17.83;12.63;;;;;;;-0.18;100.00;102276.56;4986257;28;20445;-76
2023/01/25 03:01:07;;;;;;;18.70;12.50;;;;;;;0.13;100.00;102270.84;4986612;28;20554;-76
2023/01/25 03:03:33;;;;;;;17.47;12.07;;;;;;;0.06;100.00;102269.22;5002780;28;20448;-76
2023/01/25 03:06:00;;;;;;;18.17;12.13;;;;;;;0.36;100.00;102262.56;5005422;28;20479;-76
2023/01/25 03:08:27;;;;;;;17.10;12.50;;;;;;;0.23;100.00;102261.91;5005489;28;20506;-77
2023/01/25 03:10:56;;;;;;;19.70;12.43;;;;;;;0.31;100.00;102267.94;5005135;28;20476;-76
2023/01/25 03:13:23;;;;;;;15.50;10.77;;;;;;;0.33;100.00;102257.34;5004626;28;20845;-76
2023/01/25 03:15:49;;;;;;;19.37;13.00;;;;;;;0.50;100.00;102252.69;5004776;28;20506;-76
2023/01/25 03:18:18;;;;;;;16.53;12.00;;;;;;;0.47;100.00;102247.50;4995255;28;21125;-76
2023/01/25 03:20:44;;;;;;;21.63;13.07;;;;;;;0.32;100.00;102242.47;5003927;28;20484;-76
2023/01/25 03:23:11;;;;;;;18.57;12.60;;;;;;;0.27;100.00;102245.19;4996304;28;20453;-76
2023/01/25 03:25:38;;;;;;;17.63;11.80;;;;;;;0.49;100.00;102232.53;4985364;28;20477;-77
2023/01/25 03:28:04;;;;;;;19.33;12.93;;;;;;;0.44;100.00;102231.75;4985712;28;20487;-77
2023/01/25 03:30:31;;;;;;;21.10;11.87;;;;;;;0.10;100.00;102218.28;4989565;28;20504;-76
2023/01/25 03:32:58;;;;;;;22.57;13.63;;;;;;;0.09;100.00;102217.44;5005655;28;20499;-76
2023/01/25 03:35:26;;;;;;;16.80;12.27;;;;;;;-0.04;100.00;102213.25;5004070;28;20506;-77
2023/01/25 03:37:52;;;;;;;22.53;14.37;;;;;;;-0.02;100.00;102209.72;5005223;28;20491;-77
2023/01/25 03:40:19;;;;;;;18.20;11.40;;;;;;;0.18;100.00;102209.38;4989672;28;20453;-77
2023/01/25 03:42:46;;;;;;;17.60;12.00;;;;;;;0.25;100.00;102199.63;4985724;28;20456;-76
2023/01/25 03:45:13;;;;;;;17.83;11.70;;;;;;;0.04;100.00;102203.47;4985403;28;20457;-76
2023/01/25 03:47:39;;;;;;;18.63;12.73;;;;;;;-0.14;100.00;102196.75;4996547;28;20457;-76
2023/01/25 03:50:07;;;;;;;18.77;13.53;;;;;;;-0.20;100.00;102202.09;4985162;28;20456;-74
2023/01/25 03:52:39;;;;;;;20.20;11.63;;;;;;;-0.03;100.00;102205.34;4989162;28;21028;-76
2023/01/25 03:55:07;;;;;;;15.43;10.63;;;;;;;-0.04;100.00;102205.34;5005103;28;20459;-76
2023/01/25 03:57:34;;;;;;;18.83;11.23;;;;;;;0.06;100.00;102203.47;5003425;28;20514;-76
2023/01/25 04:00:00;;;;;;;20.07;12.60;;;;;;;0.17;100.00;102196.25;5004707;28;20452;-76
2023/01/25 04:02:27;;;;;;;19.20;12.37;;;;;;;0.09;100.00;102185.88;4990699;28;20485;-77
2023/01/25 04:04:54;;;;;;;18.80;13.10;;;;;;;0.16;100.00;102184.88;4986984;28;20445;-76
2023/01/25 04:07:20;;;;;;;18.07;11.33;;;;;;;0.18;100.00;102190.09;4984800;28;21009;-77
2023/01/25 04:09:50;;;;;;;16.87;11.37;;;;;;;0.39;100.00;102193.25;4995870;28;20507;-77
2023/01/25 04:12:16;;;;;;;17.00;11.37;;;;;;;0.48;100.00;102183.41;5004102;28;20480;-77
2023/01/25 04:14:43;;;;;;;19.17;13.27;;;;;;;0.48;100.00;102193.09;4988045;28;21249;-77
2023/01/25 04:17:10;;;;;;;18.90;11.33;;;;;;;0.51;100.00;102185.13;5004074;28;20498;-77
2023/01/25 04:19:37;;;;;;;17.57;12.40;;;;;;;0.55;100.00;102177.13;4988279;28;20445;-77
2023/01/25 04:22:04;;;;;;;16.50;11.40;;;;;;;0.30;100.00;102175.88;4984737;28;20500;-77
2023/01/25 04:24:30;;;;;;;19.77;12.80;;;;;;;0.09;100.00;102179.75;4997448;28;20921;-77
2023/01/25 04:26:58;;;;;;;18.67;10.30;;;;;;;0.04;100.00;102166.66;5003654;28;21185;-76
2023/01/25 04:29:25;;;;;;;20.37;12.30;;;;;;;0.01;100.00;102166.72;5004369;28;20452;-77
2023/01/25 04:31:52;;;;;;;18.37;11.60;;;;;;;0.04;100.00;102177.19;4995762;28;20480;-77
2023/01/25 04:34:18;;;;;;;19.10;11.93;;;;;;;-0.08;100.00;102180.03;4994041;28;20448;-76
2023/01/25 04:36:45;;;;;;;20.70;12.80;;;;;;;-0.11;100.00;102183.53;5002681;28;20476;-77
2023/01/25 04:39:12;;;;;;;20.07;12.30;;;;;;;0.02;100.00;102171.09;5004489;28;20441;-76
2023/01/25 04:41:39;;;;;;;22.10;13.53;;;;;;;0.14;100.00;102172.63;5003586;28;20472;-76
2023/01/25 04:44:07;;;;;;;20.40;12.77;;;;;;;0.17;100.00;102167.31;5003914;28;20519;-76
2023/01/25 04:46:33;;;;;;;24.77;13.40;;;;;;;0.02;100.00;102170.19;5001105;28;20489;-76
2023/01/25 04:49:00;;;;;;;19.33;12.80;;;;;;;-0.04;100.00;102163.28;4985331;28;20441;-76
2023/01/25 04:51:27;;;;;;;26.80;14.10;;;;;;;0.03;100.00;102166.69;5000745;28;20823;-77
2023/01/25 04:53:53;;;;;;;24.10;14.43;;;;;;;-0.03;100.00;102160.63;5003837;28;20555;-76
2023/01/25 04:56:20;;;;;;;24.70;13.30;;;;;;;0.04;100.00;102169.28;4992759;28;20554;-76
2023/01/25 04:58:47;;;;;;;22.97;12.50;;;;;;;0.10;100.00;102168.31;5003798;28;20456;-76
2023/01/25 05:01:15;;;;;;;21.43;13.53;;;;;;;0.03;100.00;102167.53;4999307;28;20523;-79
2023/01/25 05:03:41;;;;;;;24.97;14.27;;;;;;;-0.08;100.00;102175.63;5000010;28;20479;-77
2023/01/25 05:06:08;;;;;;;24.90;14.63;;;;;;;0.03;100.00;102164.06;4991381;28;20997;-76
2023/01/25 05:08:35;;;;;;;27.40;15.40;;;;;;;0.05;100.00;102160.50;4998744;28;20503;-77
2023/01/25 05:11:02;;;;;;;25.83;13.83;;;;;;;0.36;100.00;102163.47;4990304;28;20491;-76
2023/01/25 05:13:28;;;;;;;31.03;16.37;;;;;;;0.02;100.00;102157.06;5003420;28;20491;-77
2023/01/25 05:15:56;;;;;;;29.77;16.60;;;;;;;0.05;100.00;102159.63;5002061;28;20538;-77
2023/01/25 05:18:24;;;;;;;27.30;14.50;;;;;;;0.29;100.00;102163.59;4997691;28;20553;-77
2023/01/25 05:20:54;;;;;;;25.37;14.50;;;;;;;0.57;100.00;102153.41;4997426;28;21224;-76
2023/01/25 05:23:21;;;;;;;27.10;15.20;;;;;;;0.57;100.00;102156.06;4991406;28;20505;-77
2023/01/25 05:28:32;;;;;;;30.33;16.50;;;;;;;0.12;100.00;102156.00;5000886;28;20498;-76
2023/01/25 05:30:59;;;;;;;34.00;15.47;;;;;;;0.24;100.00;102163.69;5000470;28;20487;-74
2023/01/25 05:33:27;;;;;;;31.20;17.93;;;;;;;0.25;100.00;102157.53;4998375;28;20472;-74
2023/01/25 05:35:55;;;;;;;30.73;16.43;;;;;;;0.36;100.00;102152.97;5001499;28;20475;-73
2023/01/25 05:38:21;;;;;;;33.90;17.33;;;;;;;0.37;100.00;102162.56;5003334;28;20452;-73
2023/01/25 05:40:48;;;;;;;27.80;16.20;;;;;;;0.41;100.00;102157.25;5001923;28;20480;-72
2023/01/25 05:43:15;;;;;;;32.00;17.77;;;;;;;0.29;100.00;102153.94;5003136;28;20476;-73
2023/01/25 05:45:42;;;;;;;31.60;16.80;;;;;;;0.23;100.00;102156.69;5001707;28;20519;-74
2023/01/25 05:48:08;;;;;;;27.40;15.73;;;;;;;0.42;100.00;102151.97;5003032;28;20479;-74
2023/01/25 05:50:36;;;;;;;32.03;16.50;;;;;;;0.45;100.00;102151.03;5002120;28;20486;-73
2023/01/25 05:53:03;;;;;;;30.07;17.43;;;;;;;0.49;100.00;102150.94;5002534;28;20475;-74
2023/01/25 05:55:30;;;;;;;30.70;17.27;;;;;;;0.59;100.00;102142.88;5002444;28;20472;-74
2023/01/25 05:57:56;;;;;;;32.10;16.80;;;;;;;0.59;100.00;102151.66;5001471;28;20467;-74
2023/01/25 06:00:23;;;;;;;30.47;18.37;;;;;;;0.80;100.00;102141.56;5001224;28;20428;-72
2023/01/25 06:02:50;;;;;;;34.17;18.27;;;;;;;0.74;100.00;102132.03;5001121;28;21033;-73
2023/01/25 06:05:17;;;;;;;33.37;17.73;;;;;;;0.53;100.00;102141.22;5002092;28;20456;-73
2023/01/25 06:07:45;;;;;;;33.60;18.37;;;;;;;0.58;100.00;102135.88;5001357;28;20467;-73
2023/01/25 06:10:12;;;;;;;29.33;17.10;;;;;;;0.47;100.00;102136.97;5002035;28;21168;-73
2023/01/25 06:12:39;;;;;;;29.10;16.27;;;;;;;0.50;100.00;102138.66;5002454;28;20488;-73
2023/01/25 06:15:06;;;;;;;26.53;15.63;;;;;;;0.42;100.00;102138.81;5001971;28;20470;-73
2023/01/25 06:17:33;;;;;;;28.17;14.93;;;;;;;0.45;100.00;102137.88;4998290;28;20606;-84
2023/01/25 06:20:00;;;;;;;25.57;14.37;;;;;;;0.58;100.00;102139.38;4995436;28;20451;-73
2023/01/25 06:22:26;;;;;;;31.93;16.70;;;;;;;0.49;100.00;102127.25;4989444;28;20472;-73
2023/01/25 06:24:54;;;;;;;32.70;17.10;;;;;;;0.61;100.00;102134.06;5003067;28;20456;-72
2023/01/25 06:27:21;;;;;;;28.03;15.10;;;;;;;0.72;100.00;102132.06;4999663;28;20491;-73
2023/01/25 06:29:49;;;;;;;27.60;16.60;;;;;;;0.49;100.00;102131.66;5001779;28;20459;-73
2023/01/25 06:32:15;;;;;;;28.97;17.53;;;;;;;0.49;100.00;102136.94;5002274;28;20495;-73
2023/01/25 06:34:42;;;;;;;36.83;17.00;;;;;;;0.39;100.00;102132.75;5002142;28;20471;-73
2023/01/25 06:37:09;;;;;;;32.17;17.50;;;;;;;0.23;100.00;102140.06;5002006;28;20848;-74
2023/01/25 06:39:35;;;;;;;32.53;18.40;;;;;;;0.18;100.00;102137.50;4994690;28;20464;-74
2023/01/25 06:42:04;;;;;;;31.70;17.10;;;;;;;0.27;100.00;102139.94;4993871;28;20479;-74
2023/01/25 06:44:30;;;;;;;38.00;17.13;;;;;;;0.07;100.00;102136.81;5002281;28;20456;-74
2023/01/25 06:46:57;;;;;;;29.53;16.60;;;;;;;0.01;100.00;102136.94;5001718;28;20471;-74
2023/01/25 06:49:24;;;;;;;29.43;17.43;;;;;;;0.14;100.00;102141.06;5003263;28;20519;-74
2023/01/25 06:51:51;;;;;;;32.53;18.30;;;;;;;-0.09;100.00;102133.56;5001481;28;20546;-73
2023/01/25 06:54:17;;;;;;;26.07;14.93;;;;;;;-0.22;100.00;102128.53;5002572;28;20432;-74
2023/01/25 06:56:44;;;;;;;35.40;18.67;;;;;;;-0.20;100.00;102137.25;5001528;28;20850;-73
2023/01/25 06:59:14;;;;;;;36.80;18.83;;;;;;;-0.41;100.00;102143.72;5002022;28;20526;-74
2023/01/25 07:01:41;;;;;;;36.53;18.67;;;;;;;-0.10;100.00;102134.50;5002341;28;20482;-74
2023/01/25 07:04:09;;;;;;;31.53;17.13;;;;;;;0.14;100.00;102139.31;5002910;28;20440;-74
2023/01/25 07:06:36;;;;;;;33.83;16.93;;;;;;;0.27;100.00;102145.22;5001332;28;20475;-74
2023/01/25 07:09:04;;;;;;;37.33;19.50;;;;;;;0.43;100.00;102143.16;5002761;28;20491;-74
2023/01/25 07:11:30;;;;;;;34.53;18.30;;;;;;;0.40;100.00;102137.09;5001372;28;20542;-74
2023/01/25 07:13:57;;;;;;;37.57;18.97;;;;;;;0.49;100.00;102136.94;5002019;28;20456;-74
2023/01/25 07:16:25;;;;;;;37.53;19.20;;;;;;;0.59;100.00;102137.59;5001831;28;20472;-74
2023/01/25 07:18:52;;;;;;;40.27;21.40;;;;;;;0.65;100.00;102137.50;5002167;28;20984;-73
2023/01/25 07:21:20;;;;;;;35.23;18.67;;;;;;;0.68;100.00;102135.66;5001757;28;20476;-74
2023/01/25 07:23:47;;;;;;;36.87;18.83;;;;;;;0.72;100.00;102131.22;5002262;28;20440;-74
2023/01/25 07:26:17;;;;;;;36.50;18.00;;;;;;;0.72;100.00;102128.56;4989974;28;20476;-73
2023/01/25 07:28:44;;;;;;;49.77;19.90;;;;;;;0.74;100.00;102124.13;5001991;28;20529;-73
2023/01/25 07:31:11;;;;;;;44.00;18.87;;;;;;;0.63;100.00;102123.50;5001662;28;20475;-73
2023/01/25 07:33:39;;;;;;;40.43;19.70;;;;;;;0.76;100.00;102124.97;5004495;28;20440;-73
2023/01/25 07:36:07;;;;;;;41.50;19.73;;;;;;;0.77;100.00;102123.22;5004723;28;20490;-72
2023/01/25 07:38:35;;;;;;;39.90;19.57;;;;;;;0.79;100.00;102114.38;5005870;28;20440;-72
2023/01/25 07:41:02;;;;;;;37.20;20.10;;;;;;;0.72;100.00;102118.91;5005142;28;20497;-74
2023/01/25 07:43:29;;;;;;;39.63;19.00;;;;;;;0.66;100.00;102120.78;5005512;28;20455;-74
2023/01/25 07:46:00;;;;;;;36.63;19.73;;;;;;;0.71;100.00;102122.44;5004767;28;20554;-74
2023/01/25 07:48:27;;;;;;;43.47;19.13;;;;;;;0.61;100.00;102120.91;5005197;28;20466;-74
2023/01/25 07:51:11;;;;;;;38.33;19.20;;;;;;;0.58;100.00;102115.69;5004898;28;20494;-74
2023/01/25 07:53:38;;;;;;;36.23;19.70;;;;;;;0.50;100.00;102114.97;5005372;28;20523;-75
2023/01/25 07:56:05;;;;;;;39.53;19.77;;;;;;;0.44;100.00;102118.59;5004285;28;20546;-75
2023/01/25 07:58:32;;;;;;;38.30;19.27;;;;;;;0.66;100.00;102112.88;5004887;28;20869;-75
2023/01/25 08:01:06;;;;;;;32.23;16.90;;;;;;;0.68;100.00;102116.38;5005023;28;20667;-75
2023/01/25 08:03:33;;;;;;;43.00;21.10;;;;;;;0.52;100.00;102114.06;5002364;28;20666;-75
2023/01/25 08:06:03;;;;;;;33.30;17.07;;;;;;;0.34;100.00;102109.13;5004306;28;20494;-75
2023/01/25 08:08:32;;;;;;;38.30;19.23;;;;;;;0.35;100.00;102108.25;5004533;28;20448;-75
2023/01/25 08:10:59;;;;;;;35.90;18.10;;;;;;;0.48;100.00;102109.72;5004227;28;20474;-75
2023/01/25 08:13:26;;;;;;;36.03;18.00;;;;;;;0.56;100.00;102112.22;5004129;28;20488;-75
2023/01/25 08:15:53;;;;;;;33.60;17.33;;;;;;;0.66;100.00;102107.63;5003989;28;20479;-75
2023/01/25 08:18:20;;;;;;;34.33;18.63;;;;;;;0.77;100.00;102107.44;5005336;28;20432;-75
2023/01/25 08:20:47;;;;;;;41.37;20.17;;;;;;;0.79;100.00;102114.38;4989665;28;20531;-76
2023/01/25 08:23:15;;;;;;;37.63;17.60;;;;;;;0.92;100.00;102112.34;5003708;28;20463;-76
2023/01/25 08:25:42;;;;;;;41.10;19.90;;;;;;;0.71;100.00;102096.13;5002560;28;20484;-77
2023/01/25 08:28:09;;;;;;;41.50;20.17;;;;;;;0.60;100.00;102098.09;5003398;28;20456;-75
2023/01/25 08:30:36;;;;;;;45.90;19.90;;;;;;;0.75;100.00;102097.78;5003485;28;20538;-76
2023/01/25 08:33:03;;;;;;;36.70;19.20;;;;;;;0.83;100.00;102099.38;5004116;28;20476;-75
2023/01/25 08:35:29;;;;;;;35.60;20.07;;;;;;;0.85;100.00;102092.31;5003750;28;20480;-76
2023/01/25 08:37:56;;;;;;;39.30;20.43;;;;;;;0.74;100.00;102093.41;5003918;28;21016;-76
2023/01/25 08:40:24;;;;;;;38.07;19.60;;;;;;;0.60;100.00;102091.97;5002169;28;21012;-73
2023/01/25 08:42:51;;;;;;;43.87;19.60;;;;;;;0.53;100.00;102085.97;5001658;28;20440;-73
2023/01/25 08:45:18;;;;;;;37.30;18.33;;;;;;;0.65;100.00;102092.75;5001795;28;20980;-76
2023/01/25 08:47:44;;;;;;;38.17;18.67;;;;;;;0.66;100.00;102084.81;5003442;28;20475;-76
2023/01/25 08:50:11;;;;;;;35.30;19.10;;;;;;;0.77;100.00;102079.31;5002204;28;20495;-77
2023/01/25 08:52:38;;;;;;;37.00;18.50;;;;;;;0.79;100.00;102082.78;4983103;28;20508;-76
2023/01/25 08:55:06;;;;;;;38.43;19.03;;;;;;;0.82;100.00;102089.78;4983999;28;20444;-75
2023/01/25 08:57:34;;;;;;;37.87;18.70;;;;;;;0.77;100.00;102084.59;4983120;28;20516;-76
2023/01/25 09:00:00;;;;;;;38.40;18.63;;;;;;;0.70;100.00;102078.59;4983880;28;20544;-75
2023/01/25 09:02:28;;;;;;;41.23;20.90;;;;;;;0.82;100.00;102066.06;4997859;28;20472;-75
2023/01/25 09:04:56;;;;;;;40.33;18.67;;;;;;;0.75;100.00;102066.19;5002521;28;20460;-76
2023/01/25 09:07:22;;;;;;;37.37;18.93;;;;;;;0.78;100.00;102064.38;5002932;28;20478;-77
2023/01/25 09:09:49;;;;;;;42.87;20.57;;;;;;;0.75;100.00;102070.59;5003564;28;20468;-76
2023/01/25 09:12:16;;;;;;;38.13;19.23;;;;;;;0.59;100.00;102069.16;5002189;28;20527;-76
2023/01/25 09:14:44;;;;;;;50.27;21.43;;;;;;;0.53;100.00;102068.41;5003018;28;20460;-76
2023/01/25 09:17:12;;;;;;;42.70;20.20;;;;;;;0.65;100.00;102066.44;5002526;28;20476;-76
2023/01/25 09:19:40;;;;;;;38.77;20.43;;;;;;;0.56;100.00;102060.44;5002678;28;20448;-76
2023/01/25 09:22:07;;;;;;;40.67;18.47;;;;;;;0.55;100.00;102058.69;5002280;28;20480;-75
2023/01/25 09:24:34;;;;;;;33.73;18.60;;;;;;;0.52;100.00;102058.78;5003665;28;20516;-75
2023/01/25 09:27:01;;;;;;;41.97;20.30;;;;;;;0.60;100.00;102055.97;5001808;28;20530;-76
2023/01/25 09:29:28;;;;;;;41.07;20.03;;;;;;;0.70;100.00;102054.03;5002827;28;20460;-75
2023/01/25 09:31:56;;;;;;;36.83;19.23;;;;;;;0.49;100.00;102053.59;5002314;28;20491;-75
2023/01/25 09:34:26;;;;;;;37.43;17.87;;;;;;;0.59;100.00;102046.38;5002776;28;20463;-76
2023/01/25 09:36:53;;;;;;;38.40;18.83;;;;;;;0.44;100.00;102051.94;5001983;28;21045;-75
2023/01/25 09:39:20;;;;;;;37.03;18.60;;;;;;;0.59;100.00;102038.47;5002630;28;20441;-76
2023/01/25 09:42:31;;;;;;;44.03;18.10;;;;;;;0.66;100.00;102047.09;5001932;28;20507;-75
2023/01/25 09:45:13;;;;;;;35.87;17.80;;;;;;;0.84;100.00;102041.44;5002314;28;20626;-76
2023/01/25 09:47:46;;;;;;;40.50;19.57;;;;;;;0.70;100.00;102046.13;5001369;28;20495;-76
2023/01/25 09:50:22;;;;;;;36.57;17.53;;;;;;;0.78;100.00;102033.66;5000827;28;20444;-75
2023/01/25 09:53:11;;;;;;;35.17;17.53;;;;;;;0.92;100.00;102031.59;5002058;28;20574;-75
2023/01/25 09:55:38;;;;;;;37.00;19.03;;;;;;;0.86;100.00;102029.09;4992873;28;20467;-75
2023/01/25 09:58:05;;;;;;;36.97;16.57;;;;;;;1.78;100.00;102027.75;5001149;28;20448;-75
2023/01/25 10:00:33;;;;;;;39.43;18.50;;;;;;;1.63;100.00;102026.38;5001956;28;20498;-76
2023/01/25 10:03:04;;;;;;;37.80;17.80;;;;;;;1.57;100.00;102024.78;5002282;28;20830;-76
2023/01/25 10:05:34;;;;;;;43.70;18.03;;;;;;;1.47;100.00;102018.84;5001360;28;20468;-75
2023/01/25 10:08:04;;;;;;;37.70;19.93;;;;;;;1.10;100.00;102014.50;5002765;28;20456;-76
2023/01/25 10:10:35;;;;;;;44.20;17.67;;;;;;;1.05;100.00;102010.25;5001805;28;20467;-75
2023/01/25 10:13:03;;;;;;;38.67;18.87;;;;;;;1.01;100.00;102014.72;5001726;28;20515;-75
2023/01/25 10:15:32;;;;;;;43.50;19.30;;;;;;;0.72;100.00;102013.59;5001230;28;20484;-75
2023/01/25 10:18:04;;;;;;;40.27;20.73;;;;;;;0.72;100.00;102023.28;5002508;28;20464;-76
2023/01/25 10:20:34;;;;;;;39.40;20.07;;;;;;;0.72;100.00;102012.75;5002022;28;20468;-77
2023/01/25 10:23:18;;;;;;;44.53;19.40;;;;;;;0.75;100.00;102012.69;5002542;28;20428;-75
2023/01/25 10:25:46;;;;;;;46.77;19.80;;;;;;;0.89;100.00;102007.09;5001127;28;20621;-75
2023/01/25 10:28:24;;;;;;;41.70;21.27;;;;;;;0.78;100.00;102002.06;5001858;28;20448;-75
2023/01/25 10:30:55;;;;;;;49.70;22.33;;;;;;;0.66;100.00;101994.44;5001809;28;20854;-76
2023/01/25 10:33:23;;;;;;;53.00;21.90;;;;;;;0.73;100.00;101989.03;5001588;28;20468;-76
2023/01/25 10:35:50;;;;;;;44.20;19.90;;;;;;;0.80;100.00;101988.88;5001876;28;20518;-75
2023/01/25 10:38:21;;;;;;;44.73;21.57;;;;;;;0.86;100.00;101989.59;5002333;28;21015;-76
2023/01/25 10:40:52;;;;;;;43.73;20.93;;;;;;;0.53;100.00;101981.56;5000411;28;20487;-77
2023/01/25 10:43:21;;;;;;;48.40;21.50;;;;;;;0.36;100.00;101981.94;5001536;28;20832;-76
2023/01/25 10:45:49;;;;;;;43.67;20.20;;;;;;;0.37;100.00;101965.25;5001379;28;20530;-75
2023/01/25 10:48:19;;;;;;;46.53;20.43;;;;;;;0.34;100.00;101961.81;5001743;28;20960;-75
2023/01/25 10:50:50;;;;;;;45.37;19.77;;;;;;;0.54;100.00;101974.53;5001312;28;20479;-75
2023/01/25 10:53:34;;;;;;;41.13;19.17;;;;;;;0.83;100.00;101967.75;5002073;28;20503;-75
2023/01/25 10:56:20;;;;;;;45.73;20.30;;;;;;;0.72;100.00;101960.94;5000159;28;20495;-76
2023/01/25 10:58:48;;;;;;;41.80;20.57;;;;;;;0.87;100.00;101962.38;5001296;28;20468;-75
2023/01/25 11:01:25;;;;;;;43.67;19.10;;;;;;;1.01;100.00;101953.25;5001637;28;20576;-75
2023/01/25 11:03:52;;;;;;;44.30;20.50;;;;;;;0.83;100.00;101954.56;5001080;28;20459;-75
2023/01/25 11:06:31;;;;;;;48.80;21.40;;;;;;;0.81;100.00;101953.75;5001660;28;20476;-76
2023/01/25 11:08:58;;;;;;;37.80;19.27;;;;;;;0.42;100.00;101945.84;5005884;28;20486;-75
2023/01/25 11:11:26;;;;;;;38.97;19.00;;;;;;;0.42;100.00;101935.31;5004078;28;21082;-75
2023/01/25 11:13:54;;;;;;;43.83;19.57;;;;;;;0.42;100.00;101933.56;5005718;28;20542;-76
2023/01/25 11:16:33;;;;;;;43.10;19.97;;;;;;;0.42;100.00;101930.06;5005134;28;20479;-76